createdAt,value
2023-04-27T00:01:13.255Z,18.70
2023-04-27T00:03:41.986Z,18.00
2023-04-27T00:06:13.733Z,18.90
2023-04-27T00:08:45.949Z,18.10
2023-04-27T00:11:18.212Z,17.80
2023-04-27T00:14:00.566Z,16.50
2023-04-27T00:16:31.732Z,18.20
2023-04-27T00:19:01.574Z,19.60
2023-04-27T00:21:31.857Z,20.80
2023-04-27T00:24:03.035Z,20.10
2023-04-27T00:26:32.546Z,19.30
2023-04-27T00:29:04.841Z,21.10
2023-04-27T00:31:33.893Z,21.40
2023-04-27T00:34:03.126Z,24.30
2023-04-27T00:36:39.038Z,23.70
2023-04-27T00:39:13.557Z,24.40
2023-04-27T00:41:43.967Z,23.10
2023-04-27T00:44:28.673Z,22.90
2023-04-27T00:47:06.038Z,20.20
2023-04-27T00:49:36.823Z,18.60
2023-04-27T00:52:07.605Z,19.90
2023-04-27T00:54:40.276Z,20.40
2023-04-27T00:57:09.159Z,19.20
2023-04-27T00:59:38.097Z,20.10
2023-04-27T01:02:07.497Z,19.90
2023-04-27T01:04:37.313Z,20.00
2023-04-27T01:07:06.468Z,17.40
2023-04-27T01:09:35.303Z,18.30
2023-04-27T01:12:04.644Z,21.50
2023-04-27T01:14:33.164Z,18.30
2023-04-27T01:17:02.098Z,19.10
2023-04-27T01:19:34.631Z,19.20
2023-04-27T01:24:34.796Z,19.30
2023-04-27T01:27:07.327Z,19.90
2023-04-27T01:29:40.416Z,17.50
2023-04-27T01:32:12.626Z,18.20
2023-04-27T01:34:41.445Z,19.40
2023-04-27T01:37:10.451Z,18.80
2023-04-27T01:39:41.920Z,19.40
2023-04-27T01:42:13.547Z,20.90
2023-04-27T01:44:42.372Z,21.80
2023-04-27T01:47:14.858Z,22.00
2023-04-27T01:49:45.831Z,19.60
2023-04-27T01:52:20.186Z,19.70
2023-04-27T01:54:52.901Z,20.20
2023-04-27T01:57:25.596Z,17.90
2023-04-27T02:00:00.481Z,17.20
2023-04-27T02:02:29.758Z,17.40
2023-04-27T02:04:59.215Z,19.80
2023-04-27T02:07:31.393Z,20.40
2023-04-27T02:10:00.499Z,19.40
2023-04-27T02:12:29.661Z,20.50
2023-04-27T02:14:58.650Z,21.70
2023-04-27T02:17:32.666Z,22.60
2023-04-27T02:20:02.038Z,25.30
2023-04-27T02:22:34.645Z,23.80
2023-04-27T02:25:07.836Z,24.80
2023-04-27T02:27:41.366Z,26.30
2023-04-27T02:30:14.655Z,27.50
2023-04-27T02:32:47.706Z,28.90
2023-04-27T02:35:16.899Z,26.60
2023-04-27T02:37:46.145Z,26.10
2023-04-27T02:40:19.978Z,22.70
2023-04-27T02:42:49.751Z,18.20
2023-04-27T02:47:55.663Z,14.10
2023-04-27T02:50:30.409Z,13.60
2023-04-27T02:53:01.230Z,15.30
2023-04-27T02:55:33.836Z,13.00
2023-04-27T02:58:05.944Z,14.60
2023-04-27T03:03:15.019Z,14.50
2023-04-27T03:05:44.099Z,14.00
2023-04-27T03:08:13.656Z,14.40
2023-04-27T03:10:50.915Z,13.60
2023-04-27T03:13:28.163Z,14.50
2023-04-27T03:15:57.249Z,17.40
2023-04-27T03:18:26.387Z,13.70
2023-04-27T03:21:05.759Z,14.20
2023-04-27T03:23:35.412Z,15.10
2023-04-27T03:26:19.984Z,15.50
2023-04-27T03:28:51.739Z,17.70
2023-04-27T03:31:23.818Z,22.90
2023-04-27T03:33:54.980Z,24.90
2023-04-27T03:36:24.319Z,24.80
2023-04-27T03:38:53.552Z,28.80
2023-04-27T03:41:22.634Z,24.50
2023-04-27T03:43:53.836Z,23.30
2023-04-27T03:46:22.933Z,25.60
2023-04-27T03:48:52.590Z,24.20
2023-04-27T03:51:24.731Z,23.70
2023-04-27T03:56:36.636Z,21.70
2023-04-27T03:59:06.006Z,29.10
2023-04-27T04:01:43.888Z,41.30
2023-04-27T04:06:47.993Z,39.20
2023-04-27T04:09:23.963Z,50.30
2023-04-27T04:11:56.420Z,36.40
2023-04-27T04:14:29.124Z,18.60
2023-04-27T04:19:33.902Z,13.30
2023-04-27T04:22:06.157Z,11.80
2023-04-27T04:24:35.904Z,11.80
2023-04-27T04:27:05.466Z,11.50
2023-04-27T04:29:40.462Z,11.60
2023-04-27T04:32:17.472Z,11.00
2023-04-27T04:34:51.534Z,12.30
2023-04-27T04:37:22.991Z,12.50
2023-04-27T04:39:53.225Z,12.90
2023-04-27T04:42:22.524Z,12.20
2023-04-27T04:44:53.660Z,11.30
2023-04-27T04:47:22.997Z,11.30
2023-04-27T04:49:51.983Z,10.90
2023-04-27T04:52:21.390Z,11.10
2023-04-27T04:55:00.711Z,11.50
2023-04-27T04:57:33.861Z,11.00
2023-04-27T05:00:10.975Z,11.90
2023-04-27T05:02:41.060Z,10.90
2023-04-27T05:05:21.877Z,11.00
2023-04-27T05:07:51.854Z,10.10
2023-04-27T05:10:25.220Z,10.80
2023-04-27T05:12:56.637Z,11.00
2023-04-27T05:15:28.208Z,9.40
2023-04-27T05:17:56.743Z,9.60
2023-04-27T05:20:27.065Z,10.90
2023-04-27T05:22:55.096Z,10.20
2023-04-27T05:25:23.114Z,11.40
2023-04-27T05:27:51.228Z,11.60
2023-04-27T05:30:19.556Z,10.10
2023-04-27T05:32:47.871Z,11.10
2023-04-27T05:35:16.169Z,11.20
2023-04-27T05:37:44.199Z,12.20
2023-04-27T05:40:12.348Z,10.50
2023-04-27T05:42:44.251Z,11.00
2023-04-27T05:45:13.560Z,10.10
2023-04-27T05:47:43.100Z,11.10
2023-04-27T05:50:12.158Z,10.00
2023-04-27T05:52:40.840Z,10.10
2023-04-27T05:55:10.525Z,9.50
2023-04-27T05:57:40.364Z,9.60
2023-04-27T06:00:22.104Z,9.50
2023-04-27T06:02:51.735Z,9.90
2023-04-27T06:05:21.344Z,9.90
2023-04-27T06:07:54.003Z,9.60
2023-04-27T06:10:31.269Z,10.80
2023-04-27T06:13:04.690Z,11.20
2023-04-27T06:15:35.242Z,8.80
2023-04-27T06:18:08.050Z,8.70
2023-04-27T06:20:47.249Z,9.10
2023-04-27T06:23:16.641Z,7.40
2023-04-27T06:25:53.099Z,6.90
2023-04-27T06:28:35.758Z,7.10
2023-04-27T06:31:10.096Z,6.80
2023-04-27T06:33:41.333Z,7.70
2023-04-27T06:36:09.998Z,7.00
2023-04-27T06:38:40.123Z,6.60
2023-04-27T06:41:08.785Z,7.40
2023-04-27T06:43:37.987Z,6.50
2023-04-27T06:46:11.850Z,6.40
2023-04-27T06:48:40.994Z,10.90
2023-04-27T06:51:09.575Z,6.80
2023-04-27T06:53:39.812Z,6.60
2023-04-27T06:56:12.284Z,6.20
2023-04-27T06:58:40.589Z,6.70
2023-04-27T07:01:09.550Z,7.80
2023-04-27T07:03:38.858Z,8.80
2023-04-27T07:06:07.474Z,9.90
2023-04-27T07:08:37.026Z,11.30
2023-04-27T07:11:05.917Z,10.00
2023-04-27T07:13:34.921Z,8.70
2023-04-27T07:16:08.137Z,8.20
2023-04-27T07:18:42.021Z,8.90
2023-04-27T07:21:15.735Z,7.70
2023-04-27T07:23:46.125Z,8.70
2023-04-27T07:26:14.686Z,8.70
2023-04-27T07:28:46.988Z,6.80
2023-04-27T07:31:16.009Z,6.50
2023-04-27T07:33:44.463Z,7.50
2023-04-27T07:36:15.642Z,7.30
2023-04-27T07:38:47.211Z,6.90
2023-04-27T07:41:16.861Z,4.90
2023-04-27T07:43:45.548Z,4.30
2023-04-27T07:46:22.491Z,3.90
2023-04-27T07:48:55.260Z,4.60
2023-04-27T07:51:25.358Z,3.70
2023-04-27T07:53:55.570Z,4.40
2023-04-27T07:56:26.683Z,4.00
2023-04-27T07:58:56.490Z,3.60
2023-04-27T08:01:28.178Z,4.20
2023-04-27T08:03:57.032Z,4.90
2023-04-27T08:06:28.675Z,8.50
2023-04-27T08:09:01.945Z,3.70
2023-04-27T08:11:35.615Z,4.90
2023-04-27T08:14:03.678Z,3.90
2023-04-27T08:16:32.171Z,4.20
2023-04-27T08:19:01.112Z,4.20
2023-04-27T08:21:32.553Z,3.10
2023-04-27T08:24:01.114Z,2.80
2023-04-27T08:26:29.596Z,2.50
2023-04-27T08:28:59.397Z,3.80
2023-04-27T08:31:28.565Z,3.30
2023-04-27T08:33:58.696Z,3.70
2023-04-27T08:36:28.813Z,4.50
2023-04-27T08:38:57.407Z,3.10
2023-04-27T08:41:26.104Z,3.50
2023-04-27T08:43:55.179Z,3.40
2023-04-27T08:46:27.254Z,3.40
2023-04-27T08:48:56.838Z,3.10
2023-04-27T08:51:27.367Z,3.50
2023-04-27T08:53:58.076Z,3.00
2023-04-27T08:56:29.047Z,2.80
2023-04-27T08:58:59.062Z,3.80
2023-04-27T09:01:30.099Z,4.00
2023-04-27T09:04:02.153Z,3.60
2023-04-27T09:06:35.901Z,3.90
2023-04-27T09:09:06.779Z,4.90
2023-04-27T09:11:37.508Z,2.70
2023-04-27T09:14:24.192Z,2.60
2023-04-27T09:16:59.035Z,2.70
2023-04-27T09:19:30.524Z,2.40
2023-04-27T09:24:52.047Z,2.50
2023-04-27T09:27:21.762Z,2.20
2023-04-27T09:29:55.234Z,3.90
2023-04-27T09:32:24.203Z,2.90
2023-04-27T09:34:56.967Z,1.90
2023-04-27T09:37:26.948Z,2.90
2023-04-27T09:39:56.036Z,3.30
2023-04-27T09:42:24.828Z,2.90
2023-04-27T09:44:56.342Z,3.30
2023-04-27T09:47:28.468Z,3.30
2023-04-27T09:49:59.786Z,3.10
2023-04-27T09:52:28.888Z,2.70
2023-04-27T09:55:02.390Z,3.40
2023-04-27T09:57:51.958Z,3.00
2023-04-27T10:00:44.307Z,3.40
2023-04-27T10:09:10.824Z,3.50
2023-04-27T10:11:43.756Z,4.00
2023-04-27T10:14:21.210Z,4.90
2023-04-27T10:16:58.404Z,3.50
2023-04-27T10:19:28.377Z,4.30
2023-04-27T10:22:03.353Z,4.40
2023-04-27T10:24:40.437Z,4.80
2023-04-27T10:27:12.015Z,5.00
2023-04-27T10:29:47.740Z,4.80
2023-04-27T10:32:26.142Z,5.40
2023-04-27T10:35:09.115Z,5.00
2023-04-27T10:37:44.144Z,4.20
2023-04-27T10:40:14.940Z,5.20
2023-04-27T10:42:47.756Z,5.70
2023-04-27T10:48:02.812Z,6.90
2023-04-27T10:50:33.903Z,6.50
2023-04-27T10:53:07.770Z,6.30
2023-04-27T10:55:37.197Z,5.30
2023-04-27T10:58:06.014Z,5.50
2023-04-27T11:00:44.336Z,5.60
2023-04-27T11:03:17.998Z,4.80
2023-04-27T11:06:03.764Z,5.90
2023-04-27T11:08:33.781Z,4.80
2023-04-27T11:11:02.414Z,4.40
2023-04-27T11:13:33.130Z,4.60
2023-04-27T11:16:05.101Z,4.90
2023-04-27T11:18:37.538Z,5.70
2023-04-27T11:21:18.429Z,5.30
2023-04-27T11:23:47.495Z,5.00
2023-04-27T11:26:22.272Z,5.10
2023-04-27T11:29:04.952Z,4.90
2023-04-27T11:31:44.280Z,5.10
2023-04-27T11:34:24.331Z,6.00
2023-04-27T11:37:17.432Z,4.80
2023-04-27T11:39:47.513Z,5.00
2023-04-27T11:42:22.636Z,4.70
2023-04-27T11:45:07.690Z,4.70
2023-04-27T11:47:36.612Z,4.70
2023-04-27T11:50:07.953Z,4.90
2023-04-27T11:52:39.702Z,4.90
2023-04-27T11:55:15.553Z,5.70
2023-04-27T11:57:43.952Z,6.00
2023-04-27T12:00:13.979Z,5.20
2023-04-27T12:02:44.547Z,6.50
2023-04-27T12:05:13.961Z,4.90
2023-04-27T12:07:42.984Z,5.10
2023-04-27T12:10:14.067Z,4.60
2023-04-27T12:12:42.358Z,5.00
2023-04-27T12:15:11.171Z,4.60
2023-04-27T12:17:39.572Z,4.10
2023-04-27T12:20:09.587Z,3.90
2023-04-27T12:22:38.402Z,4.90
2023-04-27T12:25:06.713Z,3.90
2023-04-27T12:27:37.168Z,3.50
2023-04-27T12:30:06.416Z,3.70
2023-04-27T12:32:34.509Z,4.20
2023-04-27T12:35:02.392Z,3.80
2023-04-27T12:37:30.385Z,4.50
2023-04-27T12:39:58.382Z,3.30
2023-04-27T12:42:26.520Z,3.70
2023-04-27T12:44:54.758Z,3.40
2023-04-27T12:47:46.047Z,2.80
2023-04-27T12:50:11.139Z,3.00
2023-04-27T12:52:44.687Z,4.20
2023-04-27T12:55:32.224Z,2.70
2023-04-27T12:58:08.635Z,3.60
2023-04-27T13:00:58.850Z,3.30
2023-04-27T13:03:28.308Z,5.40
2023-04-27T13:06:05.186Z,6.40
2023-04-27T13:08:40.784Z,6.10
2023-04-27T13:11:18.441Z,6.30
2023-04-27T13:13:50.457Z,6.00
2023-04-27T13:16:24.721Z,4.90
2023-04-27T13:18:56.489Z,4.20
2023-04-27T13:21:30.935Z,5.10
2023-04-27T13:24:02.996Z,4.90
2023-04-27T13:26:34.620Z,4.80
2023-04-27T13:29:07.155Z,4.70
2023-04-27T13:31:53.253Z,3.90
2023-04-27T13:34:26.770Z,4.00
2023-04-27T13:36:56.075Z,4.50
2023-04-27T13:39:28.890Z,4.60
2023-04-27T13:41:59.955Z,4.30
2023-04-27T13:44:34.204Z,4.00
2023-04-27T13:47:11.086Z,4.80
2023-04-27T13:49:40.480Z,4.70
2023-04-27T13:52:10.401Z,4.50
2023-04-27T13:54:53.900Z,5.00
2023-04-27T13:57:40.673Z,5.00
2023-04-27T14:00:15.710Z,5.00
2023-04-27T14:02:48.578Z,4.60
2023-04-27T14:05:22.135Z,5.00
2023-04-27T14:07:51.465Z,5.70
2023-04-27T14:10:25.569Z,6.70
2023-04-27T14:12:58.710Z,5.90
2023-04-27T14:15:29.441Z,6.20
2023-04-27T14:17:58.484Z,5.70
2023-04-27T14:20:27.809Z,8.30
2023-04-27T14:23:04.601Z,8.00
2023-04-27T14:25:37.098Z,7.50
2023-04-27T14:28:12.476Z,7.00
2023-04-27T14:30:45.665Z,6.50
2023-04-27T14:33:17.849Z,5.60
2023-04-27T14:35:52.044Z,4.60
2023-04-27T14:38:37.023Z,5.50
2023-04-27T14:41:09.581Z,7.20
2023-04-27T14:43:52.978Z,8.10
2023-04-27T14:46:24.716Z,6.20
2023-04-27T14:48:55.978Z,5.30
2023-04-27T14:51:30.038Z,6.50
2023-04-27T14:54:05.599Z,4.80
2023-04-27T14:56:44.390Z,5.30
2023-04-27T14:59:17.638Z,4.80
2023-04-27T15:01:48.740Z,3.30
2023-04-27T15:04:20.565Z,3.60
2023-04-27T15:06:52.669Z,3.60
2023-04-27T15:09:23.090Z,4.10
2023-04-27T15:11:55.392Z,4.80
2023-04-27T15:14:24.903Z,3.80
2023-04-27T15:16:54.781Z,3.40
2023-04-27T15:19:31.391Z,3.80
2023-04-27T15:22:03.483Z,3.80
2023-04-27T15:24:32.827Z,3.20
2023-04-27T15:27:10.215Z,4.00
2023-04-27T15:29:40.619Z,3.60
2023-04-27T15:32:14.939Z,3.80
2023-04-27T15:34:46.799Z,3.60
2023-04-27T15:37:40.942Z,4.10
2023-04-27T15:42:40.970Z,3.90
2023-04-27T15:45:10.250Z,4.70
2023-04-27T15:47:38.500Z,3.50
2023-04-27T15:50:07.544Z,3.40
2023-04-27T15:52:36.805Z,3.70
2023-04-27T15:55:10.607Z,4.00
2023-04-27T15:57:55.668Z,4.10
2023-04-27T16:00:43.015Z,4.00
2023-04-27T16:03:13.922Z,3.70
2023-04-27T16:05:44.216Z,4.70
2023-04-27T16:08:19.388Z,4.50
2023-04-27T16:13:24.836Z,5.30
2023-04-27T16:16:00.051Z,4.30
2023-04-27T16:18:35.821Z,4.30
2023-04-27T16:21:06.709Z,4.20
2023-04-27T16:23:41.164Z,3.40
2023-04-27T16:26:13.184Z,4.30
2023-04-27T16:28:45.478Z,4.00
2023-04-27T16:31:17.271Z,3.70
2023-04-27T16:33:58.550Z,4.20
2023-04-27T16:36:34.691Z,4.00
2023-04-27T16:39:09.680Z,4.50
2023-04-27T16:41:44.824Z,4.90
2023-04-27T16:44:26.851Z,3.90
2023-04-27T16:46:58.250Z,10.00
2023-04-27T16:49:36.324Z,6.90
2023-04-27T16:52:11.005Z,4.70
2023-04-27T16:54:40.751Z,4.10
2023-04-27T16:57:15.365Z,5.10
2023-04-27T16:59:45.092Z,4.70
2023-04-27T17:02:24.575Z,4.20
2023-04-27T17:04:56.896Z,3.90
2023-04-27T17:07:32.430Z,4.80
2023-04-27T17:10:15.251Z,5.20
2023-04-27T17:13:02.534Z,7.60
2023-04-27T17:15:40.218Z,9.40
2023-04-27T17:18:25.396Z,8.30
2023-04-27T17:20:59.723Z,8.00
2023-04-27T17:23:37.745Z,10.60
2023-04-27T17:26:22.626Z,9.90
2023-04-27T17:29:12.128Z,9.10
2023-04-27T17:31:51.300Z,8.10
2023-04-27T17:34:26.554Z,6.40
2023-04-27T17:37:02.448Z,8.10
2023-04-27T17:39:39.021Z,10.50
2023-04-27T17:42:11.904Z,10.20
2023-04-27T17:44:45.990Z,11.80
2023-04-27T17:47:28.333Z,10.20
2023-04-27T17:50:48.937Z,9.20
2023-04-27T17:53:35.670Z,10.80
2023-04-27T17:56:31.750Z,13.50
2023-04-27T17:59:09.849Z,34.70
2023-04-27T18:01:41.602Z,12.60
2023-04-27T18:04:10.897Z,9.60
2023-04-27T18:06:43.505Z,9.80
2023-04-27T18:09:18.027Z,8.20
2023-04-27T18:11:47.183Z,8.90
2023-04-27T18:14:16.482Z,9.10
2023-04-27T18:17:00.074Z,8.20
2023-04-27T18:19:35.250Z,8.20
2023-04-27T18:22:06.639Z,8.20
2023-04-27T18:24:35.999Z,8.30
2023-04-27T18:27:05.955Z,10.00
2023-04-27T18:29:46.111Z,10.80
2023-04-27T18:32:25.123Z,10.90
2023-04-27T18:34:59.582Z,12.30
2023-04-27T18:37:41.838Z,14.20
2023-04-27T18:40:11.663Z,15.10
2023-04-27T18:42:43.122Z,17.70
2023-04-27T18:45:21.829Z,18.00
2023-04-27T18:48:00.083Z,18.00
2023-04-27T18:50:29.978Z,19.30
2023-04-27T18:53:10.043Z,18.70
2023-04-27T18:55:40.464Z,19.90
2023-04-27T18:58:16.363Z,22.90
2023-04-27T19:00:50.265Z,25.10
2023-04-27T19:03:20.230Z,23.50
2023-04-27T19:05:54.192Z,22.40
2023-04-27T19:08:33.419Z,24.10
2023-04-27T19:11:52.620Z,24.10
2023-04-27T19:14:47.532Z,25.50
2023-04-27T19:17:32.950Z,27.40
2023-04-27T19:20:01.878Z,24.10
2023-04-27T19:22:36.729Z,21.70
2023-04-27T19:27:36.767Z,25.60
2023-04-27T19:30:10.701Z,26.90
2023-04-27T19:32:42.586Z,29.10
2023-04-27T19:35:27.852Z,30.80
2023-04-27T19:38:05.309Z,32.70
2023-04-27T19:40:37.527Z,34.70
2023-04-27T19:43:09.484Z,34.20
2023-04-27T19:45:39.406Z,32.80
2023-04-27T19:48:09.380Z,31.40
2023-04-27T19:50:46.695Z,33.20
2023-04-27T19:53:19.351Z,35.30
2023-04-27T19:56:00.643Z,40.70
2023-04-27T19:58:43.104Z,34.00
2023-04-27T20:01:15.415Z,30.20
2023-04-27T20:03:53.044Z,36.00
2023-04-27T20:06:34.132Z,55.00
2023-04-27T20:09:12.944Z,59.70
2023-04-27T20:11:42.138Z,55.60
2023-04-27T20:14:14.697Z,76.00
2023-04-27T20:16:55.122Z,67.30
2023-04-27T20:19:24.861Z,70.50
2023-04-27T20:21:56.575Z,72.30
2023-04-27T20:24:28.709Z,72.30
2023-04-27T20:26:57.899Z,75.20
2023-04-27T20:29:27.135Z,82.20
2023-04-27T20:31:58.671Z,95.90
2023-04-27T20:34:28.616Z,103.20
2023-04-27T20:37:02.162Z,103.90
2023-04-27T20:39:32.246Z,102.20
2023-04-27T20:42:03.625Z,94.10
2023-04-27T20:44:34.796Z,93.90
2023-04-27T20:47:06.343Z,88.40
2023-04-27T20:49:39.328Z,88.40
2023-04-27T20:52:15.805Z,95.10
2023-04-27T20:54:49.320Z,96.70
2023-04-27T20:57:22.644Z,90.30
2023-04-27T20:59:56.748Z,90.40
2023-04-27T21:02:28.510Z,87.00
2023-04-27T21:05:01.830Z,77.60
2023-04-27T21:07:50.553Z,79.30
2023-04-27T21:10:26.657Z,79.30
2023-04-27T21:13:01.620Z,83.10
2023-04-27T21:15:36.222Z,80.10
2023-04-27T21:20:35.954Z,92.40
2023-04-27T21:23:07.709Z,87.10
2023-04-27T21:25:44.999Z,89.80
2023-04-27T21:28:23.552Z,86.10
2023-04-27T21:33:44.650Z,87.60
2023-04-27T21:36:21.413Z,85.90
2023-04-27T21:38:52.831Z,87.50
2023-04-27T21:41:24.692Z,83.20
2023-04-27T21:43:56.989Z,80.60
2023-04-27T21:46:31.848Z,76.40
2023-04-27T21:49:04.821Z,78.10
2023-04-27T21:51:34.702Z,79.80
2023-04-27T21:54:04.132Z,79.40
2023-04-27T21:56:33.902Z,83.20
2023-04-27T21:59:06.155Z,81.20
2023-04-27T22:01:35.194Z,85.30
2023-04-27T22:04:25.771Z,81.70
2023-04-27T22:07:21.492Z,79.80
2023-04-27T22:09:56.191Z,76.70
2023-04-27T22:12:25.500Z,76.90
2023-04-27T22:14:54.395Z,75.70
2023-04-27T22:17:28.786Z,76.20
2023-04-27T22:20:02.353Z,81.00
2023-04-27T22:22:34.656Z,76.40
2023-04-27T22:25:04.427Z,77.90
2023-04-27T22:27:42.034Z,75.80
2023-04-27T22:30:22.922Z,75.20
2023-04-27T22:32:52.497Z,73.70
2023-04-27T22:35:27.107Z,75.60
2023-04-27T22:38:01.828Z,76.20
2023-04-27T22:40:38.092Z,75.20
2023-04-27T22:43:09.945Z,77.00
2023-04-27T22:45:40.366Z,75.40
2023-04-27T22:48:09.520Z,75.70
2023-04-27T22:50:43.180Z,73.30
2023-04-27T22:53:12.036Z,69.60
2023-04-27T22:55:40.806Z,69.40
2023-04-27T22:58:09.722Z,73.50
2023-04-27T23:00:42.935Z,68.60
2023-04-27T23:03:13.477Z,69.90
2023-04-27T23:05:43.208Z,64.00
2023-04-27T23:08:13.103Z,61.70
2023-04-27T23:10:50.865Z,57.10
2023-04-27T23:13:27.278Z,60.30
2023-04-27T23:15:56.697Z,68.60
2023-04-27T23:18:26.464Z,67.40
2023-04-27T23:20:59.089Z,64.40
2023-04-27T23:23:31.615Z,62.60
2023-04-27T23:26:03.807Z,61.60
2023-04-27T23:28:41.906Z,61.20
2023-04-27T23:31:12.897Z,63.20
2023-04-27T23:33:42.275Z,61.90
2023-04-27T23:36:11.722Z,61.60
2023-04-27T23:38:41.426Z,70.70
2023-04-27T23:41:15.991Z,68.00
2023-04-27T23:43:45.501Z,63.00
2023-04-27T23:46:14.607Z,61.50
2023-04-27T23:48:43.797Z,60.90
2023-04-27T23:51:16.175Z,63.40
2023-04-27T23:53:45.810Z,64.30
2023-04-27T23:56:19.486Z,63.10
2023-04-27T23:58:49.072Z,61.10
